Time;durP1;ratioP1;P1;durP2;ratioP2;P2;SDS_P1;SDS_P2;PMS_P1;PMS_P2;Temp;Humidity;BMP_temperature;BMP_pressure;BME280_temperature;BME280_humidity;BME280_pressure;Samples;Min_cycle;Max_cycle;Signal;HPM_P1;HPM_P2
2022/03/03 00:01:38;;;;;;;0.75;0.70;;;2.40;99.90;;;;;;5075824;28;20048;-87
2022/03/03 00:04:05;;;;;;;1.05;1.05;;;2.40;99.90;;;;;;5058983;28;20124;-87
2022/03/03 00:06:31;;;;;;;6.47;1.10;;;2.30;99.90;;;;;;5059262;28;20044;-87
2022/03/03 00:08:58;;;;;;;2.50;1.83;;;2.30;99.90;;;;;;5059293;28;20052;-86
2022/03/03 00:11:23;;;;;;;0.80;0.47;;;2.30;99.90;;;;;;5075632;28;20452;-87
2022/03/03 00:13:49;;;;;;;2.13;1.00;;;2.20;99.90;;;;;;5059326;28;20082;-87
2022/03/03 00:16:15;;;;;;;1.02;0.95;;;2.20;99.90;;;;;;5059069;28;20113;-87
2022/03/03 00:18:41;;;;;;;0.45;0.45;;;2.10;99.90;;;;;;5059100;28;20040;-87
2022/03/03 00:21:07;;;;;;;8.95;0.40;;;2.10;99.90;;;;;;5059052;28;20559;-87
2022/03/03 00:23:33;;;;;;;0.60;0.52;;;2.00;99.90;;;;;;5058554;28;20143;-87
2022/03/03 00:25:59;;;;;;;2.17;1.65;;;2.00;99.90;;;;;;5076393;28;20400;-87
2022/03/03 00:28:26;;;;;;;0.80;0.80;;;2.00;99.90;;;;;;5075495;28;20045;-87
2022/03/03 00:30:52;;;;;;;26.10;1.98;;;2.00;99.90;;;;;;5058873;28;20052;-87
2022/03/03 00:33:17;;;;;;;2.05;1.90;;;2.00;99.90;;;;;;5075474;28;20168;-87
2022/03/03 00:35:43;;;;;;;1.55;0.75;;;2.00;99.90;;;;;;5075458;28;20087;-87
2022/03/03 00:38:10;;;;;;;0.82;0.82;;;2.00;99.90;;;;;;5058488;28;20040;-87
2022/03/03 00:40:35;;;;;;;2.53;2.08;;;1.90;99.90;;;;;;5056763;28;20127;-87
2022/03/03 00:43:02;;;;;;;1.80;1.70;;;1.90;99.90;;;;;;5075160;28;20128;-87
2022/03/03 00:45:28;;;;;;;0.70;0.57;;;1.80;99.90;;;;;;5058538;28;20491;-87
2022/03/03 00:47:53;;;;;;;0.22;0.22;;;1.70;99.90;;;;;;5075026;28;20083;-87
2022/03/03 00:50:19;;;;;;;0.60;0.32;;;1.60;99.90;;;;;;5074904;28;20407;-87
2022/03/03 00:52:45;;;;;;;0.95;0.95;;;1.80;99.90;;;;;;5074613;28;20163;-87
2022/03/03 00:55:13;;;;;;;3.80;1.02;;;1.60;99.90;;;;;;5058081;28;20056;-87
2022/03/03 00:57:38;;;;;;;1.30;1.13;;;1.60;99.90;;;;;;5074498;28;20088;-87
2022/03/03 01:00:06;;;;;;;0.57;0.32;;;1.40;99.90;;;;;;5057621;28;20107;-87
2022/03/03 01:02:33;;;;;;;0.10;0.00;;;1.50;99.90;;;;;;5058184;28;20052;-87
2022/03/03 01:04:58;;;;;;;0.57;0.57;;;1.50;99.90;;;;;;5074801;28;20037;-87
2022/03/03 01:07:24;;;;;;;1.45;1.05;;;1.30;99.90;;;;;;5074630;28;20102;-87
2022/03/03 01:09:50;;;;;;;1.95;0.85;;;1.40;99.90;;;;;;5074668;28;20102;-87
2022/03/03 01:12:16;;;;;;;0.75;0.75;;;1.30;99.90;;;;;;5074147;28;20044;-87
2022/03/03 01:14:41;;;;;;;3.50;0.88;;;1.30;99.90;;;;;;5058331;28;20071;-87
2022/03/03 01:17:07;;;;;;;0.80;0.60;;;1.30;99.90;;;;;;5074289;28;20430;-87
2022/03/03 01:19:33;;;;;;;2.30;0.77;;;1.30;99.90;;;;;;5057856;28;20143;-87
2022/03/03 01:21:59;;;;;;;0.70;0.50;;;1.30;99.90;;;;;;5074185;28;20369;-87
2022/03/03 01:24:24;;;;;;;5.45;1.60;;;1.20;99.90;;;;;;5074407;28;20055;-87
2022/03/03 01:26:50;;;;;;;0.70;0.70;;;1.20;99.90;;;;;;5058037;28;20135;-87
2022/03/03 01:29:16;;;;;;;0.40;0.22;;;1.20;99.90;;;;;;5073912;28;20488;-87
2022/03/03 01:31:42;;;;;;;2.63;1.08;;;1.20;99.90;;;;;;5057448;28;20048;-88
2022/03/03 01:34:08;;;;;;;0.00;0.00;;;1.10;99.90;;;;;;5057550;28;20049;-87
2022/03/03 01:36:34;;;;;;;0.70;0.45;;;1.00;99.90;;;;;;5057034;28;20040;-87
2022/03/03 01:39:01;;;;;;;0.57;0.57;;;1.20;99.90;;;;;;5057795;28;20060;-87
2022/03/03 01:41:26;;;;;;;0.88;0.60;;;1.10;99.90;;;;;;5074328;28;20059;-87
2022/03/03 01:43:52;;;;;;;1.75;0.95;;;1.00;99.90;;;;;;5057545;28;20387;-87
2022/03/03 01:46:18;;;;;;;0.13;0.13;;;1.00;99.90;;;;;;5074087;28;20098;-87
2022/03/03 01:48:44;;;;;;;0.47;0.47;;;0.90;99.90;;;;;;5057368;28;20052;-87
2022/03/03 01:51:10;;;;;;;2.72;1.48;;;0.90;99.90;;;;;;5056758;28;20076;-87
2022/03/03 01:53:36;;;;;;;0.45;0.45;;;0.90;99.90;;;;;;5057508;28;20048;-87
2022/03/03 01:56:02;;;;;;;0.85;0.85;;;0.90;99.90;;;;;;5057296;28;20469;-87
2022/03/03 01:58:28;;;;;;;2.60;1.15;;;0.90;99.90;;;;;;5073562;28;20053;-87
2022/03/03 02:00:54;;;;;;;1.58;1.23;;;0.90;99.90;;;;;;5073789;28;20060;-87
2022/03/03 02:03:20;;;;;;;2.72;0.75;;;0.90;99.90;;;;;;5056522;28;20056;-87
2022/03/03 02:05:46;;;;;;;0.47;0.47;;;0.90;99.90;;;;;;5056839;28;20048;-88
2022/03/03 02:08:13;;;;;;;0.40;0.15;;;0.90;99.90;;;;;;5073229;28;20082;-87
2022/03/03 02:10:39;;;;;;;0.95;0.95;;;1.00;99.90;;;;;;5056457;28;20052;-87
2022/03/03 02:13:06;;;;;;;0.80;0.73;;;1.20;99.90;;;;;;5072641;28;20052;-87
2022/03/03 02:15:31;;;;;;;0.47;0.47;;;1.00;99.90;;;;;;5056577;28;20078;-88
2022/03/03 02:17:57;;;;;;;3.22;0.50;;;1.00;99.90;;;;;;5073332;28;20044;-87
2022/03/03 02:20:32;;;;;;;3.10;0.43;;;1.00;99.90;;;;;;5056757;28;20472;-88
2022/03/03 02:22:58;;;;;;;0.20;0.20;;;1.00;99.90;;;;;;5056666;28;20044;-87
2022/03/03 02:25:25;;;;;;;1.15;1.02;;;1.00;99.90;;;;;;5056613;28;20048;-88
2022/03/03 02:27:52;;;;;;;0.25;0.25;;;1.00;99.90;;;;;;5056893;28;20048;-87
2022/03/03 02:30:18;;;;;;;0.75;0.68;;;1.00;99.90;;;;;;5056338;28;20061;-88
2022/03/03 02:32:45;;;;;;;1.13;0.65;;;1.00;99.90;;;;;;5072813;28;20036;-87
2022/03/03 02:35:11;;;;;;;2.85;0.90;;;1.00;99.90;;;;;;5056412;28;20056;-87
2022/03/03 02:37:40;;;;;;;2.80;0.73;;;0.90;99.90;;;;;;5056447;28;20139;-87
2022/03/03 02:40:09;;;;;;;0.75;0.75;;;1.00;99.90;;;;;;5056316;28;20044;-87
2022/03/03 02:42:35;;;;;;;1.65;1.55;;;0.90;99.90;;;;;;5056099;28;20084;-87
2022/03/03 02:45:03;;;;;;;3.30;1.83;;;0.90;99.90;;;;;;5055857;28;20099;-86
2022/03/03 02:47:30;;;;;;;0.68;0.60;;;0.90;99.90;;;;;;5072970;28;20048;-87
2022/03/03 02:49:56;;;;;;;1.05;0.93;;;0.90;99.90;;;;;;5055994;28;20132;-87
2022/03/03 02:52:22;;;;;;;0.63;0.63;;;0.90;99.90;;;;;;5055789;28;20111;-87
2022/03/03 02:54:48;;;;;;;0.95;0.90;;;0.90;99.90;;;;;;5056339;28;20068;-87
2022/03/03 02:59:58;;;;;;;5.25;1.20;;;0.70;99.90;;;;;;5073196;28;20127;-87
2022/03/03 03:02:23;;;;;;;1.02;0.77;;;0.70;99.90;;;;;;5055240;28;20469;-87
2022/03/03 03:04:49;;;;;;;0.95;0.95;;;0.70;99.90;;;;;;5056523;28;20040;-88
2022/03/03 03:07:15;;;;;;;1.20;1.20;;;0.70;99.90;;;;;;5072932;28;20043;-87
2022/03/03 03:09:43;;;;;;;1.05;1.05;;;0.70;99.90;;;;;;5072885;28;20515;-88
2022/03/03 03:12:09;;;;;;;1.13;1.02;;;0.70;99.90;;;;;;5055588;28;20084;-88
2022/03/03 03:14:34;;;;;;;0.60;0.52;;;0.70;99.90;;;;;;5072756;28;20131;-88
2022/03/03 03:17:00;;;;;;;4.03;1.80;;;0.70;99.90;;;;;;5056312;28;20135;-88
2022/03/03 03:19:26;;;;;;;1.45;0.65;;;0.70;99.90;;;;;;5056067;28;20055;-88
2022/03/03 03:21:52;;;;;;;2.38;1.48;;;0.70;99.90;;;;;;5072497;28;20388;-87
2022/03/03 03:24:17;;;;;;;0.38;0.38;;;0.60;99.90;;;;;;5072517;28;20045;-88
2022/03/03 03:26:43;;;;;;;4.13;0.50;;;0.60;99.90;;;;;;5056019;28;20063;-87
2022/03/03 03:29:09;;;;;;;1.25;1.25;;;0.60;99.90;;;;;;5072571;28;20143;-88
2022/03/03 03:31:35;;;;;;;4.18;2.47;;;0.60;99.90;;;;;;5055840;28;20048;-88
2022/03/03 03:34:00;;;;;;;1.08;0.43;;;0.60;99.90;;;;;;5055829;28;20056;-87
2022/03/03 03:36:26;;;;;;;0.88;0.20;;;0.60;99.90;;;;;;5055932;28;20037;-88
2022/03/03 03:38:52;;;;;;;0.73;0.50;;;0.50;99.90;;;;;;5072816;28;20049;-88
2022/03/03 03:41:18;;;;;;;1.17;1.08;;;0.60;99.90;;;;;;5056148;28;20476;-88
2022/03/03 03:43:43;;;;;;;2.55;1.27;;;0.60;99.90;;;;;;5072852;28;20074;-87
2022/03/03 03:46:09;;;;;;;0.57;0.57;;;0.60;99.90;;;;;;5055753;28;20045;-88
2022/03/03 03:48:35;;;;;;;3.53;0.55;;;0.60;99.90;;;;;;5072379;28;20056;-88
2022/03/03 03:51:00;;;;;;;2.53;0.45;;;0.60;99.90;;;;;;5072778;28;20434;-87
2022/03/03 03:53:26;;;;;;;0.30;0.30;;;0.50;99.90;;;;;;5055597;28;20447;-88
2022/03/03 03:55:52;;;;;;;0.63;0.63;;;0.60;99.90;;;;;;5072483;28;20040;-87
2022/03/03 03:58:18;;;;;;;1.13;0.65;;;0.50;99.90;;;;;;5071748;28;20132;-88
2022/03/03 04:00:43;;;;;;;0.55;0.55;;;0.50;99.90;;;;;;5072322;28;20049;-88
2022/03/03 04:03:09;;;;;;;0.63;0.63;;;0.60;99.90;;;;;;5072231;28;20041;-88
2022/03/03 04:05:35;;;;;;;0.55;0.55;;;0.50;99.90;;;;;;5072231;28;20036;-89
2022/03/03 04:08:02;;;;;;;1.60;0.50;;;0.50;99.90;;;;;;5055310;28;20064;-88
2022/03/03 04:10:28;;;;;;;0.73;0.73;;;0.50;99.90;;;;;;5071914;28;20048;-88
2022/03/03 04:12:55;;;;;;;0.57;0.57;;;0.50;99.90;;;;;;5072384;28;20059;-88
2022/03/03 04:15:21;;;;;;;0.80;0.80;;;0.60;99.90;;;;;;5058474;28;20076;-88
2022/03/03 04:17:48;;;;;;;0.40;0.40;;;0.50;99.90;;;;;;5075933;28;20041;-88
2022/03/03 04:20:15;;;;;;;0.38;0.38;;;0.50;99.90;;;;;;5059241;28;20048;-89
2022/03/03 04:22:41;;;;;;;0.57;0.57;;;0.50;99.90;;;;;;5059088;28;20040;-89
2022/03/03 04:25:10;;;;;;;0.85;0.85;;;0.50;99.90;;;;;;5058926;28;20110;-88
2022/03/03 04:27:37;;;;;;;1.50;1.40;;;0.50;99.90;;;;;;5059012;28;20152;-89
2022/03/03 04:30:04;;;;;;;0.50;0.50;;;0.50;99.90;;;;;;5059085;28;20050;-89
2022/03/03 04:32:33;;;;;;;1.38;1.27;;;0.50;99.90;;;;;;5058527;28;20040;-89
2022/03/03 04:34:59;;;;;;;1.48;0.68;;;0.50;99.90;;;;;;5075959;28;20044;-88
2022/03/03 04:37:24;;;;;;;1.60;1.25;;;0.40;99.90;;;;;;5058715;28;20392;-88
2022/03/03 04:39:50;;;;;;;2.28;0.80;;;0.40;99.90;;;;;;5075227;28;20040;-89
2022/03/03 04:42:16;;;;;;;1.70;1.60;;;0.50;99.90;;;;;;5058452;28;20048;-88
2022/03/03 04:44:41;;;;;;;1.55;0.70;;;0.50;99.90;;;;;;5058461;28;20044;-89
2022/03/03 04:47:07;;;;;;;0.68;0.68;;;0.50;99.90;;;;;;5058711;28;20097;-89
2022/03/03 04:49:33;;;;;;;1.17;0.55;;;0.50;99.90;;;;;;5058600;28;20055;-88
2022/03/03 04:51:59;;;;;;;3.53;1.50;;;0.60;99.90;;;;;;5075003;28;20419;-89
2022/03/03 04:54:24;;;;;;;1.08;0.52;;;0.60;99.90;;;;;;5075068;28;20055;-88
2022/03/03 04:56:52;;;;;;;0.05;0.05;;;0.90;99.90;;;;;;5058741;28;20059;-88
2022/03/03 04:59:18;;;;;;;0.70;0.13;;;0.80;99.90;;;;;;5058358;28;20399;-88
2022/03/03 05:01:44;;;;;;;0.45;0.22;;;0.50;99.90;;;;;;5075197;28;20044;-88
2022/03/03 05:04:09;;;;;;;2.38;2.17;;;0.60;99.90;;;;;;5058528;28;20053;-88
2022/03/03 05:06:35;;;;;;;0.95;0.40;;;0.50;99.90;;;;;;5074798;28;20131;-87
2022/03/03 05:09:01;;;;;;;0.63;0.63;;;0.50;99.90;;;;;;5074696;28;20040;-88
2022/03/03 05:11:27;;;;;;;0.52;0.52;;;0.50;99.90;;;;;;5057944;28;20112;-88
2022/03/03 05:13:52;;;;;;;1.30;0.75;;;0.50;99.90;;;;;;5058397;28;20048;-88
2022/03/03 05:16:18;;;;;;;1.10;1.00;;;0.50;99.90;;;;;;5074189;28;20048;-88
2022/03/03 05:18:44;;;;;;;1.38;0.70;;;0.50;99.90;;;;;;5058896;28;20047;-88
2022/03/03 05:21:10;;;;;;;0.43;0.43;;;0.40;99.90;;;;;;5074783;28;20052;-88
2022/03/03 05:23:36;;;;;;;1.20;0.35;;;1.10;99.90;;;;;;5058006;28;20044;-88
2022/03/03 05:26:02;;;;;;;10.63;1.10;;;0.40;99.90;;;;;;5057145;28;20045;-88
2022/03/03 05:28:28;;;;;;;0.30;0.30;;;0.40;99.90;;;;;;5074726;28;20045;-88
2022/03/03 05:30:54;;;;;;;0.50;0.50;;;0.40;99.90;;;;;;5074157;28;20041;-88
2022/03/03 05:33:20;;;;;;;0.43;0.43;;;0.30;99.90;;;;;;5057700;28;20056;-87
2022/03/03 05:35:48;;;;;;;2.58;2.38;;;0.30;99.90;;;;;;5057729;28;20388;-88
2022/03/03 05:38:13;;;;;;;0.17;0.17;;;0.30;99.90;;;;;;5073956;28;20127;-87
2022/03/03 05:40:39;;;;;;;0.15;0.15;;;0.30;99.90;;;;;;5057576;28;20087;-88
2022/03/03 05:43:05;;;;;;;4.43;1.77;;;0.30;99.90;;;;;;5074616;28;20135;-87
2022/03/03 05:45:34;;;;;;;0.10;0.10;;;0.30;99.90;;;;;;5057006;28;20047;-88
2022/03/03 05:48:01;;;;;;;2.30;0.65;;;0.30;99.90;;;;;;5074739;28;20048;-88
2022/03/03 05:50:26;;;;;;;2.80;1.15;;;0.20;99.90;;;;;;5073865;28;20045;-88
2022/03/03 05:52:54;;;;;;;0.10;0.10;;;0.20;99.90;;;;;;5074156;28;20098;-88
2022/03/03 05:55:20;;;;;;;0.75;0.47;;;0.20;99.90;;;;;;5057797;28;20041;-88
2022/03/03 05:57:49;;;;;;;0.35;0.32;;;0.10;99.90;;;;;;5073875;28;20055;-88
2022/03/03 06:00:17;;;;;;;1.88;1.10;;;0.00;99.90;;;;;;5073668;28;20501;-88
2022/03/03 06:02:54;;;;;;;0.30;0.30;;;0.00;99.90;;;;;;5074009;28;20087;-88
2022/03/03 06:05:25;;;;;;;1.45;1.38;;;0.00;99.90;;;;;;5056938;28;20388;-88
2022/03/03 06:08:05;;;;;;;4.57;2.05;;;-0.10;99.90;;;;;;5057590;28;20463;-88
2022/03/03 06:10:35;;;;;;;0.55;0.55;;;-0.10;99.90;;;;;;5057804;28;20131;-88
2022/03/03 06:13:14;;;;;;;4.75;1.08;;;-0.10;99.90;;;;;;5073440;28;20040;-89
2022/03/03 06:15:42;;;;;;;0.95;0.88;;;-0.10;99.90;;;;;;5057106;28;20060;-89
2022/03/03 06:18:09;;;;;;;1.35;0.47;;;0.00;99.90;;;;;;5074156;28;20079;-89
2022/03/03 06:20:37;;;;;;;1.45;0.90;;;0.00;99.90;;;;;;5057034;28;20056;-89
2022/03/03 06:23:02;;;;;;;0.75;0.75;;;-0.10;99.90;;;;;;5073383;28;20055;-89
2022/03/03 06:25:28;;;;;;;0.50;0.50;;;0.00;99.90;;;;;;5057338;28;20408;-89
2022/03/03 06:27:54;;;;;;;0.20;0.20;;;0.10;99.90;;;;;;5056419;28;20048;-88
2022/03/03 06:30:20;;;;;;;0.15;0.10;;;0.00;99.90;;;;;;5056479;28;20127;-88
2022/03/03 06:32:45;;;;;;;0.05;0.05;;;0.00;99.90;;;;;;5056610;28;20041;-89
2022/03/03 06:35:11;;;;;;;1.45;0.10;;;-0.10;99.90;;;;;;5073607;28;20135;-89
2022/03/03 06:37:37;;;;;;;4.50;1.83;;;0.00;99.90;;;;;;5072145;28;20083;-88
2022/03/03 06:40:03;;;;;;;1.02;0.98;;;0.40;99.90;;;;;;5073177;28;20052;-88
2022/03/03 06:42:29;;;;;;;0.40;0.20;;;0.00;99.90;;;;;;5072795;28;20052;-87
2022/03/03 06:44:55;;;;;;;0.00;0.00;;;0.10;99.90;;;;;;5072923;28;20094;-88
2022/03/03 06:47:22;;;;;;;0.35;0.35;;;0.10;99.90;;;;;;5073015;28;20075;-89
2022/03/03 06:49:49;;;;;;;0.22;0.22;;;0.10;99.90;;;;;;5056581;28;20044;-89
2022/03/03 06:52:17;;;;;;;1.00;0.50;;;0.10;99.90;;;;;;5056187;28;20047;-89
2022/03/03 06:54:51;;;;;;;0.77;0.75;;;0.00;99.90;;;;;;5072830;28;20040;-88
2022/03/03 06:57:21;;;;;;;0.90;0.63;;;0.10;99.90;;;;;;5072385;28;20057;-88
2022/03/03 06:59:47;;;;;;;0.98;0.88;;;0.30;99.90;;;;;;5056179;28;20427;-88
2022/03/03 07:02:14;;;;;;;3.08;0.20;;;0.20;99.90;;;;;;5073410;28;20451;-89
2022/03/03 07:04:40;;;;;;;0.73;0.47;;;0.30;99.90;;;;;;5056053;28;20519;-88
2022/03/03 07:07:06;;;;;;;3.53;0.52;;;0.50;99.90;;;;;;5056421;28;20052;-88
2022/03/03 07:09:32;;;;;;;6.13;0.85;;;0.40;99.90;;;;;;5072546;28;20388;-88
2022/03/03 07:12:00;;;;;;;0.85;0.85;;;0.40;99.90;;;;;;5072432;28;20089;-89
2022/03/03 07:14:26;;;;;;;0.80;0.80;;;0.40;99.90;;;;;;5072742;28;20048;-89
2022/03/03 07:17:04;;;;;;;0.43;0.43;;;0.50;99.90;;;;;;5055645;28;20412;-89
2022/03/03 07:19:39;;;;;;;0.77;0.77;;;0.50;99.90;;;;;;5072740;28;20392;-87
2022/03/03 07:22:43;;;;;;;4.88;0.85;;;0.50;99.90;;;;;;5072349;28;20498;-85
2022/03/03 07:25:14;;;;;;;0.30;0.30;;;0.60;99.90;;;;;;5054776;28;20048;-88
2022/03/03 07:27:42;;;;;;;0.52;0.52;;;1.10;99.90;;;;;;5037865;28;20211;-88
2022/03/03 07:30:12;;;;;;;0.60;0.60;;;1.70;99.90;;;;;;5054773;28;20051;-88
2022/03/03 07:32:52;;;;;;;0.70;0.38;;;2.50;99.90;;;;;;5054531;28;20443;-88
2022/03/03 07:35:20;;;;;;;2.38;0.70;;;2.90;99.90;;;;;;5054463;28;20049;-88
2022/03/03 07:38:05;;;;;;;2.17;1.42;;;3.00;99.90;;;;;;5053991;28;20207;-87
2022/03/03 07:40:32;;;;;;;3.65;0.45;;;3.00;99.90;;;;;;5035812;28;20477;-86
2022/03/03 07:42:59;;;;;;;0.50;0.50;;;2.90;99.90;;;;;;5054533;28;20131;-87
2022/03/03 07:45:26;;;;;;;4.70;2.03;;;2.90;99.90;;;;;;5037075;28;20063;-87
2022/03/03 07:47:55;;;;;;;0.32;0.32;;;2.90;99.90;;;;;;5054779;28;20053;-87
2022/03/03 07:50:21;;;;;;;0.80;0.80;;;3.00;99.90;;;;;;5058101;28;20052;-87
2022/03/03 07:52:49;;;;;;;1.73;0.70;;;3.30;99.90;;;;;;5058054;28;20075;-86
2022/03/03 07:55:15;;;;;;;0.43;0.43;;;3.40;99.90;;;;;;5058160;28;20151;-87
2022/03/03 07:57:53;;;;;;;1.20;1.10;;;3.60;99.90;;;;;;5040577;28;20045;-87
2022/03/03 08:00:20;;;;;;;2.63;0.98;;;3.80;99.90;;;;;;5062376;28;20051;-86
2022/03/03 08:02:53;;;;;;;2.08;0.65;;;4.10;99.90;;;;;;5075948;28;20137;-87
2022/03/03 08:05:19;;;;;;;5.00;1.17;;;4.50;99.90;;;;;;5059260;28;20058;-87
2022/03/03 08:07:46;;;;;;;1.85;0.65;;;4.50;99.90;;;;;;5075685;28;20135;-87
2022/03/03 08:10:14;;;;;;;0.82;0.82;;;4.60;99.90;;;;;;5075609;28;20040;-87
2022/03/03 08:12:41;;;;;;;1.20;1.08;;;4.60;99.90;;;;;;5075421;28;20075;-88
2022/03/03 08:15:09;;;;;;;0.88;0.88;;;4.60;99.90;;;;;;5075384;28;20499;-86
2022/03/03 08:17:34;;;;;;;2.88;1.05;;;4.70;99.90;;;;;;5075436;28;20123;-86
2022/03/03 08:20:04;;;;;;;0.22;0.22;;;4.60;99.90;;;;;;5058854;28;20132;-88
2022/03/03 08:22:31;;;;;;;0.40;0.30;;;4.80;99.90;;;;;;5058950;28;20522;-86
2022/03/03 08:24:58;;;;;;;0.20;0.17;;;5.20;99.60;;;;;;5058571;28;20044;-87
2022/03/03 08:27:26;;;;;;;1.45;0.88;;;6.00;99.70;;;;;;5075654;28;20076;-87
2022/03/03 08:29:56;;;;;;;2.90;0.70;;;6.40;98.30;;;;;;5075649;28;20036;-87
2022/03/03 08:32:23;;;;;;;1.45;0.60;;;6.70;96.80;;;;;;5058419;28;20041;-87
2022/03/03 08:35:15;;;;;;;0.95;0.95;;;7.00;95.50;;;;;;5075405;28;20049;-88
2022/03/03 08:38:03;;;;;;;0.38;0.38;;;7.60;93.00;;;;;;5059124;28;20095;-88
2022/03/03 08:40:30;;;;;;;4.97;1.08;;;8.00;90.50;;;;;;5074524;28;20062;-88
2022/03/03 08:42:59;;;;;;;2.58;0.60;;;7.80;86.10;;;;;;5058576;28;20102;-88
2022/03/03 08:45:29;;;;;;;1.25;1.00;;;7.70;86.80;;;;;;5075115;28;20044;-88
2022/03/03 08:48:06;;;;;;;2.10;1.35;;;7.90;87.40;;;;;;5075443;28;20048;-88
2022/03/03 08:50:35;;;;;;;1.45;1.25;;;8.00;85.40;;;;;;5075359;28;20048;-88
2022/03/03 08:53:03;;;;;;;0.30;0.30;;;8.40;86.40;;;;;;5074802;28;20071;-87
2022/03/03 08:55:29;;;;;;;1.40;0.32;;;8.80;81.40;;;;;;5074952;28;20453;-88
2022/03/03 08:57:56;;;;;;;4.00;1.13;;;9.00;79.70;;;;;;5057735;28;20055;-88
2022/03/03 09:00:22;;;;;;;0.10;0.10;;;9.10;78.80;;;;;;5057249;28;20079;-89
2022/03/03 09:02:48;;;;;;;0.93;0.55;;;9.40;79.40;;;;;;5058296;28;20114;-89
2022/03/03 09:05:14;;;;;;;0.63;0.30;;;9.70;79.70;;;;;;5058262;28;20047;-89
2022/03/03 09:07:41;;;;;;;0.32;0.32;;;9.20;76.80;;;;;;5075357;28;20399;-90
2022/03/03 09:10:07;;;;;;;0.55;0.55;;;9.30;78.20;;;;;;5075101;28;20562;-90
2022/03/03 09:12:33;;;;;;;0.10;0.10;;;8.70;76.30;;;;;;5058070;28;20136;-90
2022/03/03 09:14:59;;;;;;;2.15;0.57;;;8.50;75.90;;;;;;5075013;28;20370;-90
2022/03/03 09:17:25;;;;;;;3.45;0.40;;;8.50;76.80;;;;;;5074895;28;20047;-91
2022/03/03 09:19:51;;;;;;;0.28;0.28;;;8.30;77.70;;;;;;5058460;28;20051;-91
2022/03/03 09:22:17;;;;;;;1.13;0.95;;;8.30;75.50;;;;;;5075076;28;20127;-90
2022/03/03 09:24:43;;;;;;;0.82;0.82;;;8.60;77.90;;;;;;5075228;28;20052;-91
2022/03/03 09:27:08;;;;;;;3.40;0.77;;;8.80;77.10;;;;;;5058376;28;20492;-91
2022/03/03 09:29:35;;;;;;;0.73;0.20;;;8.90;76.80;;;;;;5058523;28;20044;-89
2022/03/03 09:32:03;;;;;;;0.60;0.60;;;9.00;75.70;;;;;;5075449;28;20538;-92
2022/03/03 09:34:29;;;;;;;0.90;0.50;;;9.30;75.30;;;;;;5058577;28;20060;-89
2022/03/03 09:36:58;;;;;;;1.88;0.88;;;9.40;73.10;;;;;;5074975;28;20040;-89
2022/03/03 09:39:24;;;;;;;0.50;0.30;;;9.60;73.70;;;;;;5058605;28;20045;-89
2022/03/03 09:41:52;;;;;;;0.20;0.20;;;9.50;73.30;;;;;;5075059;28;20055;-89
2022/03/03 09:44:22;;;;;;;0.50;0.20;;;9.70;73.50;;;;;;5058298;28;20046;-89
2022/03/03 09:46:48;;;;;;;1.45;0.60;;;10.30;71.50;;;;;;5075220;28;20082;-89
2022/03/03 09:49:14;;;;;;;0.55;0.22;;;9.90;70.00;;;;;;5058817;28;20045;-89
2022/03/03 09:51:39;;;;;;;0.60;0.50;;;10.00;73.20;;;;;;5074670;28;20040;-90
2022/03/03 09:54:06;;;;;;;1.02;0.57;;;10.10;71.20;;;;;;5057486;28;20052;-89
2022/03/03 09:56:32;;;;;;;0.57;0.57;;;10.00;69.60;;;;;;5073376;28;20084;-89
2022/03/03 09:58:58;;;;;;;1.27;0.50;;;10.20;69.50;;;;;;5058055;28;20119;-89
2022/03/03 10:01:28;;;;;;;0.52;0.52;;;10.30;68.20;;;;;;5057208;28;20044;-89
2022/03/03 10:03:58;;;;;;;0.43;0.22;;;10.50;68.70;;;;;;5057278;28;20056;-89
2022/03/03 10:06:24;;;;;;;0.93;0.40;;;10.50;68.20;;;;;;5073966;28;20044;-89
2022/03/03 10:08:50;;;;;;;0.17;0.17;;;11.30;68.70;;;;;;5056978;28;20078;-89
2022/03/03 10:11:16;;;;;;;0.88;0.80;;;10.80;66.20;;;;;;5056788;28;20472;-89
2022/03/03 10:13:52;;;;;;;0.75;0.65;;;10.90;66.40;;;;;;5074349;28;20051;-88
2022/03/03 10:16:24;;;;;;;0.50;0.50;;;11.20;66.20;;;;;;5073405;28;20082;-89
2022/03/03 10:19:05;;;;;;;0.32;0.10;;;11.00;65.20;;;;;;5056953;28;20088;-89
2022/03/03 10:21:33;;;;;;;2.60;0.68;;;11.30;64.80;;;;;;5073493;28;20138;-89
2022/03/03 10:24:00;;;;;;;0.40;0.32;;;11.20;64.90;;;;;;5074121;28;20395;-89
2022/03/03 10:26:40;;;;;;;0.28;0.28;;;11.50;63.50;;;;;;5057107;28;20044;-88
2022/03/03 10:29:20;;;;;;;0.20;0.20;;;11.20;61.40;;;;;;5073667;28;20077;-89
2022/03/03 10:31:50;;;;;;;0.95;0.85;;;11.80;64.40;;;;;;5073232;28;20385;-88
2022/03/03 10:34:18;;;;;;;1.20;0.30;;;11.70;62.30;;;;;;5056810;28;20549;-89
2022/03/03 10:36:53;;;;;;;2.75;1.20;;;12.20;61.90;;;;;;5056648;28;20476;-88
2022/03/03 10:39:19;;;;;;;0.50;0.40;;;12.00;60.00;;;;;;5056074;28;20072;-88
2022/03/03 10:41:46;;;;;;;3.42;1.95;;;11.80;58.70;;;;;;5073258;28;20084;-88
2022/03/03 10:44:13;;;;;;;1.08;0.98;;;11.90;60.50;;;;;;5056438;28;20052;-90
2022/03/03 10:47:07;;;;;;;0.17;0.15;;;12.00;59.80;;;;;;5072974;28;20067;-88
2022/03/03 10:49:35;;;;;;;0.25;0.13;;;12.20;60.80;;;;;;5056482;28;20147;-88
2022/03/03 10:52:25;;;;;;;1.00;0.70;;;12.60;59.90;;;;;;5072902;28;20043;-87
2022/03/03 10:55:03;;;;;;;0.82;0.57;;;12.50;56.90;;;;;;5056541;28;20056;-88
2022/03/03 10:57:59;;;;;;;1.08;0.70;;;12.40;56.00;;;;;;5055931;28;20094;-88
2022/03/03 11:00:29;;;;;;;0.65;0.30;;;12.30;55.90;;;;;;5055152;28;20059;-88
2022/03/03 11:02:57;;;;;;;1.77;0.85;;;12.20;57.70;;;;;;5037983;28;20194;-88
2022/03/03 11:05:25;;;;;;;0.20;0.20;;;12.20;56.10;;;;;;5055178;28;20061;-88
2022/03/03 11:07:52;;;;;;;0.65;0.45;;;12.30;56.50;;;;;;5055068;28;20049;-88
2022/03/03 11:10:26;;;;;;;0.22;0.22;;;12.50;56.70;;;;;;5038626;28;20175;-88
2022/03/03 11:12:52;;;;;;;1.73;1.00;;;12.50;55.20;;;;;;5037187;28;20484;-88
2022/03/03 11:15:21;;;;;;;5.18;1.02;;;12.70;55.80;;;;;;5038593;28;20040;-88
2022/03/03 11:17:49;;;;;;;0.10;0.10;;;12.50;54.80;;;;;;5038512;28;20060;-88
2022/03/03 11:20:16;;;;;;;2.20;1.17;;;12.40;54.60;;;;;;5055071;28;20047;-88
2022/03/03 11:22:44;;;;;;;2.83;0.30;;;12.30;54.80;;;;;;5055031;28;20488;-88
2022/03/03 11:25:26;;;;;;;0.30;0.30;;;12.40;55.90;;;;;;5058288;28;20142;-87
2022/03/03 11:28:05;;;;;;;0.52;0.20;;;12.70;57.00;;;;;;5059332;28;20131;-87
2022/03/03 11:30:32;;;;;;;2.75;0.95;;;13.00;56.90;;;;;;5059476;28;20520;-86
2022/03/03 11:33:22;;;;;;;1.60;0.60;;;13.00;55.80;;;;;;5058589;28;20044;-87
2022/03/03 11:35:50;;;;;;;0.93;0.47;;;12.70;55.00;;;;;;5058232;28;20059;-87
2022/03/03 11:38:20;;;;;;;1.90;0.47;;;12.70;55.30;;;;;;5059795;28;20060;-87
2022/03/03 11:41:03;;;;;;;0.75;0.45;;;12.80;55.90;;;;;;5059921;28;20052;-87
2022/03/03 11:43:30;;;;;;;0.25;0.10;;;12.50;54.30;;;;;;5060142;28;20133;-86
2022/03/03 11:45:58;;;;;;;1.63;0.80;;;12.60;54.20;;;;;;5060036;28;20140;-86
2022/03/03 11:48:35;;;;;;;0.17;0.17;;;12.70;54.80;;;;;;5076616;28;20036;-86
2022/03/03 11:51:32;;;;;;;0.10;0.10;;;12.60;54.60;;;;;;5076218;28;20492;-86
2022/03/03 11:54:07;;;;;;;0.90;0.45;;;12.60;55.40;;;;;;5059703;28;20491;-86
2022/03/03 11:56:33;;;;;;;4.95;0.38;;;12.60;55.30;;;;;;5059712;28;20056;-86
2022/03/03 11:59:12;;;;;;;0.65;0.65;;;12.50;54.80;;;;;;5059573;28;20062;-86
2022/03/03 12:01:57;;;;;;;0.30;0.30;;;12.30;55.80;;;;;;5059860;28;20047;-86
2022/03/03 12:04:25;;;;;;;2.35;1.20;;;12.40;55.60;;;;;;5078417;28;20033;-85
2022/03/03 12:06:53;;;;;;;3.40;1.05;;;12.50;56.50;;;;;;5078772;28;20458;-85
2022/03/03 12:09:30;;;;;;;0.15;0.10;;;12.70;56.40;;;;;;5062011;28;20056;-85
2022/03/03 12:12:17;;;;;;;4.28;0.95;;;12.70;55.50;;;;;;5078098;28;20442;-85
2022/03/03 12:15:01;;;;;;;1.45;0.20;;;12.70;56.30;;;;;;5060965;28;20048;-86
2022/03/03 12:17:44;;;;;;;1.20;1.10;;;12.90;56.20;;;;;;5060818;28;20052;-85
2022/03/03 12:20:30;;;;;;;0.52;0.52;;;12.90;54.30;;;;;;5060398;28;20048;-85
2022/03/03 12:23:02;;;;;;;0.50;0.20;;;13.00;55.20;;;;;;5060064;28;20040;-85
2022/03/03 12:25:50;;;;;;;2.88;0.28;;;13.20;55.40;;;;;;5075602;28;20131;-85
2022/03/03 12:28:40;;;;;;;0.68;0.65;;;13.50;54.60;;;;;;5057748;28;20462;-85
2022/03/03 12:31:29;;;;;;;0.88;0.88;;;13.80;54.30;;;;;;5058191;28;20153;-85
2022/03/03 12:33:59;;;;;;;0.88;0.55;;;14.00;53.50;;;;;;5057674;28;20064;-85
2022/03/03 12:36:25;;;;;;;0.52;0.40;;;14.00;53.20;;;;;;5040878;28;20053;-85
2022/03/03 12:38:54;;;;;;;1.02;0.60;;;14.20;53.20;;;;;;5040975;28;20454;-85
2022/03/03 12:41:27;;;;;;;0.82;0.50;;;14.40;52.90;;;;;;5057739;28;20060;-85
2022/03/03 12:43:53;;;;;;;0.35;0.30;;;14.60;52.40;;;;;;5057558;28;20202;-85
2022/03/03 12:46:19;;;;;;;0.98;0.43;;;14.40;51.60;;;;;;5040915;28;20099;-85
2022/03/03 12:48:46;;;;;;;4.35;1.02;;;14.40;50.40;;;;;;5040873;28;20579;-85
2022/03/03 12:51:12;;;;;;;0.13;0.13;;;14.30;51.00;;;;;;5057459;28;20491;-85
2022/03/03 12:53:43;;;;;;;1.27;1.17;;;14.30;51.10;;;;;;5040634;28;20048;-85
2022/03/03 12:56:10;;;;;;;0.30;0.28;;;14.20;50.30;;;;;;5040551;28;20123;-85
2022/03/03 12:58:38;;;;;;;0.17;0.17;;;14.10;51.30;;;;;;5056789;28;20057;-85
2022/03/03 13:01:04;;;;;;;7.03;1.55;;;13.90;51.20;;;;;;5056995;28;20057;-86
2022/03/03 13:03:34;;;;;;;0.65;0.52;;;13.80;51.60;;;;;;5057151;28;20119;-85
2022/03/03 13:06:00;;;;;;;0.10;0.10;;;13.80;51.60;;;;;;5070032;28;20052;-85